Andes — 5BFM3 — position and weather

sailwx.info

Track history (hours):
 
Tides and Currents Weather Stations Pressure Air Temp Water Temp Dewpoint Dewpoint Depression Visibility Wind Speed Wind Dir Waves Ship Positions

Andes

Last reported at 2017-Aug-13 10:53 UTC. Time now 2017-Aug-17 09:55 UTC.
Position N 29°42' W 093°51'.

Length 182 m; draft 7.5 m.

Type: Ship. MMSI: 209394000.

Date/timePositionNaut miles runAvg speedWind from/ knotsBaromVisibWave heightAir tempDewpointWater temp
2017-Aug-13 10:53N 29°42' W 093°51'8 8.4
2017-Aug-13 09:59N 29°48' W 093°57'10 6.7
2017-Aug-13 08:29N 29°57' W 093°52'5 5.1
2017-Aug-13 07:26N 29°60' W 093°57'2 0.0
2017-Aug-11 05:15N 30°01' W 093°59'0 1.4
2017-Aug-11 04:58N 30°01' W 093°59'7 6.1
2017-Aug-11 03:53N 29°59' W 093°52'3 7.8
2017-Aug-11 03:28N 29°56' W 093°53'5 9.0
2017-Aug-11 02:56N 29°52' W 093°56'5 8.2
2017-Aug-11 02:20N 29°47' W 093°57'410.6
2017-Aug-11 01:56N 29°44' W 093°53'  
2017-Aug-08 17:11N 29°36' W 093°45'1 2.8
2017-Aug-08 17:00N 29°35' W 093°45'  
Track history (hours):
 
Tides and Currents Weather Stations Pressure Air Temp Water Temp Dewpoint Dewpoint Depression Visibility Wind Speed Wind Dir Waves Ship Positions

Andes

Last reported at 2017-Aug-13 10:53 UTC. Time now 2017-Aug-17 09:55 UTC.
Position N 29°42' W 093°51'.

Length 182 m; draft 7.5 m.

Type: Ship. MMSI: 209394000.

Date/timePositionNaut miles runAvg speedWind from/ knotsBaromVisibWave heightAir tempDewpointWater temp
2017-Aug-13 10:53N 29°42' W 093°51'8 8.4
2017-Aug-13 09:59N 29°48' W 093°57'10 6.7
2017-Aug-13 08:29N 29°57' W 093°52'5 5.1
2017-Aug-13 07:26N 29°60' W 093°57'2 0.0
2017-Aug-11 05:15N 30°01' W 093°59'0 1.4
2017-Aug-11 04:58N 30°01' W 093°59'7 6.1
2017-Aug-11 03:53N 29°59' W 093°52'3 7.8
2017-Aug-11 03:28N 29°56' W 093°53'5 9.0
2017-Aug-11 02:56N 29°52' W 093°56'5 8.2
2017-Aug-11 02:20N 29°47' W 093°57'410.6
2017-Aug-11 01:56N 29°44' W 093°53'  
2017-Aug-08 17:11N 29°36' W 093°45'1 2.8
2017-Aug-08 17:00N 29°35' W 093°45'  

Dump ship's entire track history